Portada
METAR-TAF:

METAR-TAF

Aeroports :

Kunming, Xina

latitud: 25-01N, longitud: 102-41E, altitud: 1892 m

Observació

L'informe es va fer fa 42 minuts, a les 13:00 UTC
Vent 16 kt del Sud/Sud-Oest
Temperatura 22°C
Humitat 50%
Pressió 1016 hPa
Visibilitat 10 km o més
Escasses núvols a una alçada de 2600 ft

METAR: ZPPP 201300Z 21008MPS 9999 FEW026 22/11 Q1016 NOSIG

Hora: 21:42 (13:42 UTC)

Pronòstic

L'informe es va fer fa 6 hores i 37 minuts, a les 07:05 UTC
Pronòstic vàlid del 20 a les 12 UTC al 21 a les 12 UTC
Vent 12 kt del Sud-Oest
Visibilitat 10 km o més
Núvols disperses a una alçada de 2600 ft

TAF: ZPPP 200705Z 2012/2112 22006MPS 9999 SCT026 TX27/2108Z TN15/2023Z

Observacions i pronòstics meteorològics de més de 4000 aeroports (METAR i TAF).

Les estacions disponibles són els punts grocs i vermells al mapa.

Posi el ratolí al punt desitjat per veure el nom de l'estació.

Feu clic per veure les observacions i els pronòstics meteorològics.

Per canviar el mapa: feu clic els botons verds amb una creu de color negre per apropar; al botó verd amb un guió per allunyar la imatge; o en les fletxes verdes per a mapes adjacents.


METAR-TAF: